KPSF/PSF METAR and TAF weather

Enter ICAO airport designator
Station Type Date Time Source
KPSF METAR 2020/09/28 09:54 UTC NOAA

KPSF 280954Z AUTO 00000KT 3SM -RA BR BKN009 OVC013 21/19 A2987 RMK AO2 RAB01E11B29 SLP090 P0001 T02060189


Station Type Date Time Source
KPSF Decoded METAR 2020/09/28 09:54 UTC NOAA

PITTSFIELD MUNICIPAL AIRPORT , MA, United States (KPSF) 42-26N 073-17W 355M
Sep 28, 2020 - 05:54 AM EDT / 2020.09.28 0954 UTC
Wind: Calm:0
Visibility: 3 mile(s):0
Sky conditions: overcast
Weather: light rain; mist
Precipitation last hour: 0.01 inches
Temperature: 69.1 F (20.6 C)
Dew Point: 66.0 F (18.9 C)
Relative Humidity: 89%
Pressure (altimeter): 29.87 in. Hg (1011 hPa)
ob: KPSF 280954Z AUTO 00000KT 3SM -RA BR BKN009 OVC013 21/19 A2987 RMK AO2 RAB01E11B29 SLP090 P0001 T02060189
cycle: 10

Station Type Date Time Source
KPSF TAF 2020/09/28 06:27 UTC NOAA

TAF KPSF 280526Z 2806/2906 13003KT P6SM VCSH BKN015 OVC030
FM281500 17008KT P6SM VCSH BKN020
FM281800 17010KT P6SM VCSH BKN040
FM290000 16006KT P6SM SCT025
AMD NOT SKED 2806/2809

Example: see airport list